Time;durP1;ratioP1;P1;durP2;ratioP2;P2;SDS_P1;SDS_P2;PMS_P1;PMS_P2;Temp;Humidity;BMP_temperature;BMP_pressure;BME280_temperature;BME280_humidity;BME280_pressure;Samples;Min_cycle;Max_cycle;Signal;HPM_P1;HPM_P2
2022/07/16 00:01:57;;;;;;;2.20;1.13;;;18.20;71.10;;;;;;6215663;23;20446;-70
2022/07/16 00:04:23;;;;;;;1.25;0.70;;;18.10;70.70;;;;;;6192155;23;20322;-69
2022/07/16 00:06:48;;;;;;;1.77;1.10;;;18.10;70.90;;;;;;6203436;23;20188;-66
2022/07/16 00:09:14;;;;;;;2.88;1.00;;;18.00;71.00;;;;;;6195979;23;20204;-69
2022/07/16 00:11:40;;;;;;;1.90;0.90;;;18.00;70.90;;;;;;6201201;23;20157;-70
2022/07/16 00:14:08;;;;;;;1.98;0.77;;;18.00;71.20;;;;;;6191096;23;20149;-71
2022/07/16 00:16:34;;;;;;;1.00;0.80;;;18.00;71.10;;;;;;6192273;23;20244;-68
2022/07/16 00:19:18;;;;;;;2.15;0.90;;;17.90;71.10;;;;;;6191431;23;20164;-71
2022/07/16 00:21:48;;;;;;;1.42;0.90;;;17.90;71.10;;;;;;6191774;23;20180;-71
2022/07/16 00:24:17;;;;;;;1.52;0.70;;;17.90;71.60;;;;;;6196094;23;20149;-72
2022/07/16 00:26:47;;;;;;;1.23;0.80;;;17.90;71.30;;;;;;6194477;23;20161;-65
2022/07/16 00:29:12;;;;;;;1.23;0.80;;;17.90;71.60;;;;;;6189666;23;20191;-72
2022/07/16 00:31:40;;;;;;;1.55;0.90;;;17.90;71.60;;;;;;6192156;23;20232;-69
2022/07/16 00:34:10;;;;;;;1.60;0.95;;;17.90;71.60;;;;;;6192436;23;20150;-72
2022/07/16 00:36:39;;;;;;;1.08;0.63;;;17.90;71.60;;;;;;6193796;23;20184;-72
2022/07/16 00:39:06;;;;;;;1.88;0.90;;;17.90;72.00;;;;;;6190093;23;20168;-71
2022/07/16 00:41:32;;;;;;;2.88;0.80;;;17.90;72.20;;;;;;6188353;23;20208;-72
2022/07/16 00:44:20;;;;;;;1.05;0.80;;;17.90;72.20;;;;;;6213415;23;20283;-71
2022/07/16 00:46:48;;;;;;;1.90;0.95;;;17.90;73.70;;;;;;6213588;23;20180;-72
2022/07/16 00:49:15;;;;;;;1.23;0.73;;;17.80;72.40;;;;;;6217663;23;20180;-66
2022/07/16 00:51:46;;;;;;;1.60;0.80;;;17.80;72.40;;;;;;6221097;23;20191;-69
2022/07/16 00:54:12;;;;;;;1.23;0.80;;;17.80;73.10;;;;;;6214126;23;20177;-70
2022/07/16 00:56:39;;;;;;;2.28;0.98;;;17.70;72.70;;;;;;6217113;23;20189;-69
2022/07/16 00:59:04;;;;;;;0.90;0.70;;;17.70;72.80;;;;;;6217165;23;20160;-71
2022/07/16 01:01:30;;;;;;;1.40;0.90;;;17.70;73.00;;;;;;6217001;23;20181;-69
2022/07/16 01:03:56;;;;;;;1.60;0.95;;;17.60;73.10;;;;;;6220197;23;20207;-72
2022/07/16 01:06:25;;;;;;;2.33;0.90;;;17.60;73.20;;;;;;6215666;23;20183;-71
2022/07/16 01:08:51;;;;;;;1.10;0.80;;;17.60;73.40;;;;;;6215234;23;20199;-70
2022/07/16 01:11:23;;;;;;;1.25;0.65;;;17.50;73.40;;;;;;6214174;23;20408;-72
2022/07/16 01:13:50;;;;;;;1.38;0.80;;;17.50;73.60;;;;;;6220085;23;20185;-66
2022/07/16 01:16:17;;;;;;;0.77;0.70;;;17.50;73.80;;;;;;6222779;23;20177;-71
2022/07/16 01:18:44;;;;;;;1.33;0.90;;;17.50;74.00;;;;;;6214638;23;20161;-72
2022/07/16 01:21:16;;;;;;;2.63;1.00;;;17.40;74.10;;;;;;6214551;23;20184;-72
2022/07/16 01:23:45;;;;;;;1.35;0.95;;;17.40;74.60;;;;;;6218499;23;20168;-72
2022/07/16 01:26:13;;;;;;;2.38;0.82;;;17.40;74.40;;;;;;6214389;23;20150;-70
2022/07/16 01:28:41;;;;;;;1.10;0.70;;;17.40;74.90;;;;;;6216171;23;20188;-70
2022/07/16 01:31:07;;;;;;;2.40;1.05;;;17.30;74.60;;;;;;6214555;23;20161;-70
2022/07/16 01:33:38;;;;;;;1.35;0.93;;;17.30;74.80;;;;;;6218128;23;20243;-72
2022/07/16 01:36:12;;;;;;;2.42;0.90;;;17.30;75.60;;;;;;6215272;23;20260;-70
2022/07/16 01:38:45;;;;;;;1.77;1.15;;;17.20;75.70;;;;;;6217158;23;20141;-71
2022/07/16 01:41:12;;;;;;;2.22;1.00;;;17.20;75.30;;;;;;6215544;23;20176;-72
2022/07/16 01:43:39;;;;;;;2.22;1.25;;;17.20;75.50;;;;;;6218619;23;20165;-72
2022/07/16 01:46:04;;;;;;;1.20;0.98;;;17.20;75.50;;;;;;6220398;23;20403;-71
2022/07/16 01:48:30;;;;;;;1.33;1.00;;;17.10;75.70;;;;;;6218894;23;20185;-72
2022/07/16 01:50:59;;;;;;;3.13;1.20;;;17.10;75.80;;;;;;6223991;23;20248;-71
2022/07/16 01:53:29;;;;;;;1.73;1.00;;;17.10;76.10;;;;;;6216804;23;20199;-71
2022/07/16 01:55:55;;;;;;;2.03;0.95;;;17.10;76.70;;;;;;6218113;23;20225;-71
2022/07/16 01:58:27;;;;;;;1.08;0.63;;;17.20;76.60;;;;;;6215415;23;20149;-71
2022/07/16 02:00:55;;;;;;;1.60;0.90;;;17.20;77.20;;;;;;6215420;23;20200;-72
2022/07/16 02:03:25;;;;;;;1.98;0.95;;;17.20;76.80;;;;;;6215167;23;20172;-71
2022/07/16 02:05:53;;;;;;;1.73;1.00;;;17.20;77.40;;;;;;6215611;23;20153;-71
2022/07/16 02:08:21;;;;;;;2.05;1.02;;;17.20;77.20;;;;;;6215157;23;20187;-71
2022/07/16 02:10:46;;;;;;;1.65;1.05;;;17.10;77.90;;;;;;6215886;23;20158;-70
2022/07/16 02:13:12;;;;;;;1.08;0.98;;;17.10;77.30;;;;;;6213934;23;20192;-71
2022/07/16 02:15:37;;;;;;;1.70;0.90;;;17.10;77.50;;;;;;6215898;23;20251;-71
2022/07/16 02:18:05;;;;;;;2.50;1.08;;;17.10;77.50;;;;;;6214316;23;20153;-72
2022/07/16 02:20:33;;;;;;;2.17;1.00;;;17.10;77.70;;;;;;6214375;23;20169;-72
2022/07/16 02:22:59;;;;;;;1.05;0.90;;;17.10;77.80;;;;;;6215836;23;20160;-72
2022/07/16 02:25:25;;;;;;;1.63;0.90;;;17.00;77.90;;;;;;6214486;23;20154;-71
2022/07/16 02:28:06;;;;;;;2.67;0.90;;;17.00;78.00;;;;;;6214967;23;20157;-72
2022/07/16 02:30:35;;;;;;;1.40;0.75;;;16.90;78.10;;;;;;6214984;23;20157;-71
2022/07/16 02:33:01;;;;;;;1.15;0.85;;;16.90;78.60;;;;;;6214676;23;20592;-72
2022/07/16 02:35:27;;;;;;;1.35;0.93;;;16.80;78.20;;;;;;6214507;23;20180;-72
2022/07/16 02:37:52;;;;;;;1.63;1.10;;;16.80;78.50;;;;;;6214745;23;20251;-71
2022/07/16 02:40:21;;;;;;;1.63;0.77;;;16.80;78.60;;;;;;6215407;23;20244;-72
2022/07/16 02:42:46;;;;;;;0.98;0.80;;;16.70;78.80;;;;;;6214410;23;20288;-72
2022/07/16 02:45:14;;;;;;;1.60;0.90;;;16.70;78.90;;;;;;6214708;23;20303;-72
2022/07/16 02:47:40;;;;;;;1.92;0.90;;;16.70;79.30;;;;;;6214964;23;20182;-72
2022/07/16 02:50:07;;;;;;;2.72;1.10;;;16.60;80.10;;;;;;6215028;23;20168;-72
2022/07/16 02:52:35;;;;;;;1.48;0.80;;;16.60;79.60;;;;;;6214519;23;20194;-71
2022/07/16 02:55:03;;;;;;;0.93;0.75;;;16.60;79.70;;;;;;6214520;23;20154;-72
2022/07/16 02:57:29;;;;;;;1.23;0.90;;;16.50;79.80;;;;;;6214771;23;20173;-72
2022/07/16 02:59:54;;;;;;;1.67;0.90;;;16.50;80.00;;;;;;6215072;23;20208;-72
2022/07/16 03:02:24;;;;;;;1.40;0.80;;;16.50;80.10;;;;;;6214506;23;20150;-72
2022/07/16 03:04:53;;;;;;;1.65;0.90;;;16.50;80.70;;;;;;6214449;23;20157;-72
2022/07/16 03:07:21;;;;;;;1.20;0.90;;;16.40;80.30;;;;;;6213983;23;20251;-72
2022/07/16 03:09:47;;;;;;;1.55;0.88;;;16.40;80.90;;;;;;6215041;23;20260;-72
2022/07/16 03:12:12;;;;;;;2.33;0.90;;;16.40;80.80;;;;;;6215096;23;20264;-71
2022/07/16 03:14:38;;;;;;;1.40;0.90;;;16.40;81.10;;;;;;6215271;23;20177;-72
2022/07/16 03:17:06;;;;;;;2.25;1.00;;;16.30;81.30;;;;;;6215413;23;20188;-72
2022/07/16 03:19:31;;;;;;;1.63;0.88;;;16.30;81.30;;;;;;6215150;23;20212;-72
2022/07/16 03:21:57;;;;;;;2.03;0.88;;;16.30;81.60;;;;;;6215080;23;20157;-72
2022/07/16 03:24:23;;;;;;;2.03;1.00;;;16.30;81.70;;;;;;6214626;23;20157;-72
2022/07/16 03:26:50;;;;;;;1.55;0.90;;;16.30;82.60;;;;;;6215343;23;20181;-73
2022/07/16 03:29:16;;;;;;;2.60;1.10;;;16.30;82.20;;;;;;6215384;23;20149;-73
2022/07/16 03:31:44;;;;;;;1.88;0.88;;;16.30;82.60;;;;;;6214907;23;20169;-72
2022/07/16 03:34:12;;;;;;;1.70;1.02;;;16.30;83.10;;;;;;6213633;23;20181;-69
2022/07/16 03:36:38;;;;;;;1.58;0.77;;;16.30;82.90;;;;;;6214104;23;20272;-71
2022/07/16 03:39:06;;;;;;;1.92;1.00;;;16.30;83.20;;;;;;6214737;23;20211;-72
2022/07/16 03:41:38;;;;;;;2.17;1.00;;;16.30;83.40;;;;;;6214258;23;20157;-72
2022/07/16 03:44:06;;;;;;;1.48;0.95;;;16.30;83.70;;;;;;6214243;23;20161;-73
2022/07/16 03:46:32;;;;;;;1.58;0.88;;;16.40;83.80;;;;;;6214972;23;20150;-72
2022/07/16 03:48:58;;;;;;;1.30;0.90;;;16.40;83.80;;;;;;6214472;23;20160;-72
2022/07/16 03:51:28;;;;;;;1.50;0.80;;;16.40;83.90;;;;;;6214430;23;20153;-71
2022/07/16 03:53:56;;;;;;;1.58;0.90;;;16.40;83.90;;;;;;6214011;23;20183;-72
2022/07/16 03:56:22;;;;;;;1.25;1.00;;;16.40;84.10;;;;;;6214230;23;20204;-72
2022/07/16 03:58:47;;;;;;;1.63;0.90;;;16.40;84.20;;;;;;6214225;23;20366;-73
2022/07/16 04:01:13;;;;;;;1.08;0.80;;;16.40;84.30;;;;;;6214064;23;20177;-73
2022/07/16 04:03:39;;;;;;;2.72;0.88;;;16.50;84.50;;;;;;6213708;23;20153;-73
2022/07/16 04:06:08;;;;;;;2.10;1.00;;;16.50;84.60;;;;;;6214018;23;20248;-71
2022/07/16 04:08:36;;;;;;;1.25;0.90;;;16.50;84.60;;;;;;6214181;23;20181;-73
2022/07/16 04:11:02;;;;;;;2.10;0.90;;;16.60;84.70;;;;;;6213743;23;20150;-71
2022/07/16 04:13:29;;;;;;;1.55;0.90;;;16.50;84.60;;;;;;6213899;23;20157;-73
2022/07/16 04:15:55;;;;;;;1.45;0.85;;;16.50;84.70;;;;;;6213996;23;20173;-73
2022/07/16 04:18:20;;;;;;;3.75;0.80;;;16.50;84.80;;;;;;6213710;23;20161;-72
2022/07/16 04:20:49;;;;;;;1.48;0.98;;;16.50;84.90;;;;;;6213580;23;20181;-72
2022/07/16 04:23:15;;;;;;;1.60;0.90;;;16.50;85.10;;;;;;6213648;23;20149;-73
2022/07/16 04:25:40;;;;;;;2.30;1.10;;;16.50;85.20;;;;;;6214219;23;20181;-73
2022/07/16 04:28:06;;;;;;;1.73;0.90;;;16.50;85.40;;;;;;6214998;23;20180;-73
2022/07/16 04:30:34;;;;;;;2.40;1.10;;;16.50;85.50;;;;;;6214550;23;20149;-73
2022/07/16 04:33:05;;;;;;;1.17;0.70;;;16.60;86.20;;;;;;6214920;23;20177;-73
2022/07/16 04:35:31;;;;;;;1.50;0.90;;;16.60;85.90;;;;;;6213887;23;20244;-72
2022/07/16 04:37:56;;;;;;;1.35;0.82;;;16.60;86.10;;;;;;6215753;23;20275;-73
2022/07/16 04:40:24;;;;;;;1.67;1.00;;;16.70;86.40;;;;;;6214647;23;20263;-73
2022/07/16 04:42:52;;;;;;;1.88;1.20;;;16.70;86.80;;;;;;6214306;23;20232;-71
2022/07/16 04:45:20;;;;;;;1.70;1.10;;;16.70;86.80;;;;;;6214231;23;20162;-72
2022/07/16 04:47:46;;;;;;;1.30;1.00;;;16.80;86.70;;;;;;6213717;23;20183;-73
2022/07/16 04:50:11;;;;;;;1.75;1.20;;;16.80;86.70;;;;;;6214129;23;20176;-71
2022/07/16 04:52:42;;;;;;;1.88;0.95;;;16.80;86.80;;;;;;6213886;23;20176;-73
2022/07/16 04:55:08;;;;;;;3.33;1.50;;;16.90;87.30;;;;;;6214074;23;20170;-73
2022/07/16 04:57:36;;;;;;;4.07;1.20;;;16.90;87.20;;;;;;6214166;23;20177;-72
2022/07/16 05:00:04;;;;;;;1.40;0.98;;;17.00;87.30;;;;;;6214384;23;20145;-72
2022/07/16 05:05:19;;;;;;;2.50;1.13;;;17.10;87.50;;;;;;6215457;23;20168;-71
2022/07/16 05:07:49;;;;;;;1.23;0.85;;;17.10;87.80;;;;;;6215383;23;20177;-67
2022/07/16 05:10:15;;;;;;;2.60;1.30;;;17.20;87.70;;;;;;6214318;23;20157;-68
2022/07/16 05:12:41;;;;;;;1.73;1.42;;;17.20;87.80;;;;;;6213961;23;20187;-67
2022/07/16 05:15:09;;;;;;;2.72;1.60;;;17.30;88.00;;;;;;6214987;23;20177;-68
2022/07/16 05:17:35;;;;;;;3.97;1.52;;;17.40;88.20;;;;;;6215879;23;20180;-68
2022/07/16 05:20:05;;;;;;;3.40;1.58;;;17.40;88.10;;;;;;6215434;23;20149;-68
2022/07/16 05:22:33;;;;;;;2.17;1.30;;;17.50;88.20;;;;;;6215849;23;20149;-68
2022/07/16 05:25:01;;;;;;;2.88;1.30;;;17.60;88.30;;;;;;6215638;23;20161;-67
2022/07/16 05:27:27;;;;;;;2.00;1.30;;;17.60;88.00;;;;;;6215418;23;20300;-68
2022/07/16 05:29:55;;;;;;;1.88;1.20;;;17.70;88.00;;;;;;6216714;23;20177;-66
2022/07/16 05:32:20;;;;;;;2.45;1.40;;;17.70;88.10;;;;;;6216842;23;20177;-73
2022/07/16 05:34:46;;;;;;;1.55;1.15;;;17.80;88.20;;;;;;6217225;23;20184;-72
2022/07/16 05:37:11;;;;;;;1.25;1.00;;;17.80;88.20;;;;;;6216217;23;20378;-71
2022/07/16 05:39:37;;;;;;;2.38;1.20;;;17.90;88.60;;;;;;6216298;23;20243;-73
2022/07/16 05:42:02;;;;;;;1.80;1.10;;;17.90;88.30;;;;;;6217000;23;20323;-72
2022/07/16 05:44:33;;;;;;;2.60;1.00;;;17.90;88.30;;;;;;6215935;23;20267;-73
2022/07/16 05:46:59;;;;;;;1.90;1.05;;;18.00;88.50;;;;;;6215953;23;20153;-73
2022/07/16 05:49:25;;;;;;;1.33;0.80;;;18.10;88.60;;;;;;6216025;23;20187;-72
2022/07/16 05:51:55;;;;;;;1.10;1.00;;;18.10;88.60;;;;;;6215542;23;20162;-74
2022/07/16 05:54:21;;;;;;;1.60;0.90;;;18.20;88.70;;;;;;6215948;23;20196;-73
2022/07/16 05:56:48;;;;;;;1.67;1.08;;;18.20;88.30;;;;;;6216341;23;20188;-73
2022/07/16 05:59:15;;;;;;;1.50;1.05;;;18.20;88.10;;;;;;6216317;23;20146;-74
2022/07/16 06:01:43;;;;;;;1.20;1.00;;;18.20;88.10;;;;;;6216507;23;20161;-73
2022/07/16 06:04:08;;;;;;;2.35;1.40;;;18.20;88.20;;;;;;6216371;23;20172;-73
2022/07/16 06:06:34;;;;;;;1.60;1.10;;;18.30;88.90;;;;;;6216504;23;20177;-73
2022/07/16 06:09:00;;;;;;;2.28;0.90;;;18.30;88.30;;;;;;6216177;23;20165;-70
2022/07/16 06:11:25;;;;;;;1.52;0.90;;;18.30;88.30;;;;;;6215732;23;20196;-73
2022/07/16 06:13:56;;;;;;;1.63;1.17;;;18.40;88.40;;;;;;6215483;23;20177;-73
2022/07/16 06:16:27;;;;;;;1.38;1.10;;;18.40;88.50;;;;;;6214994;23;20173;-73
2022/07/16 06:18:55;;;;;;;1.35;0.90;;;18.50;88.60;;;;;;6215818;23;20240;-71
2022/07/16 06:21:20;;;;;;;1.55;1.00;;;18.50;88.40;;;;;;6216182;23;20256;-73
2022/07/16 06:23:46;;;;;;;1.73;0.90;;;18.50;88.40;;;;;;6216110;23;20184;-74
2022/07/16 06:26:12;;;;;;;2.03;1.10;;;18.60;88.50;;;;;;6215942;23;20193;-74
2022/07/16 06:28:37;;;;;;;1.50;0.80;;;18.60;88.40;;;;;;6216043;23;20299;-79
2022/07/16 06:31:03;;;;;;;2.67;1.02;;;18.60;88.40;;;;;;6216014;23;20165;-71
2022/07/16 06:33:31;;;;;;;1.60;1.00;;;18.60;88.50;;;;;;6217489;23;20177;-74
2022/07/16 06:35:57;;;;;;;2.55;1.20;;;18.70;88.40;;;;;;6214881;23;20192;-73
2022/07/16 06:38:22;;;;;;;2.80;1.02;;;18.70;88.40;;;;;;6215734;23;20241;-74
2022/07/16 06:40:50;;;;;;;1.30;0.90;;;18.80;88.50;;;;;;6215322;23;20145;-73
2022/07/16 06:43:16;;;;;;;1.83;1.30;;;18.80;88.50;;;;;;6214430;23;20165;-72
2022/07/16 06:45:43;;;;;;;1.10;0.80;;;18.90;88.50;;;;;;6215805;23;20177;-73
2022/07/16 06:48:09;;;;;;;1.98;1.08;;;19.00;88.60;;;;;;6215771;23;20157;-74
2022/07/16 06:50:37;;;;;;;2.85;1.02;;;19.10;88.70;;;;;;6214719;23;20198;-73
2022/07/16 06:53:03;;;;;;;1.20;1.00;;;19.10;88.50;;;;;;6214711;23;20224;-74
2022/07/16 06:55:29;;;;;;;2.10;0.80;;;19.20;88.10;;;;;;6214972;23;20153;-73
2022/07/16 06:57:54;;;;;;;0.93;0.70;;;19.20;87.70;;;;;;6215488;23;20168;-74
2022/07/16 07:00:22;;;;;;;1.77;0.90;;;19.30;87.60;;;;;;6215664;23;20158;-73
2022/07/16 07:02:48;;;;;;;1.88;1.30;;;19.30;87.40;;;;;;6216247;23;20161;-72
2022/07/16 07:05:16;;;;;;;1.30;0.93;;;19.30;87.30;;;;;;6215212;23;20177;-75
2022/07/16 07:07:41;;;;;;;1.33;0.90;;;19.30;87.30;;;;;;6216091;23;20150;-73
2022/07/16 07:10:10;;;;;;;1.70;1.10;;;19.40;87.40;;;;;;6215471;23;20164;-72
2022/07/16 07:12:37;;;;;;;1.23;1.05;;;19.40;87.40;;;;;;6215392;23;20221;-73
2022/07/16 07:15:04;;;;;;;1.70;1.00;;;19.50;87.70;;;;;;6214611;23;20164;-73
2022/07/16 07:17:32;;;;;;;1.65;0.90;;;19.50;87.60;;;;;;6214656;23;20217;-73
2022/07/16 07:19:58;;;;;;;2.80;0.98;;;19.60;87.60;;;;;;6214771;23;20173;-73
2022/07/16 07:22:23;;;;;;;2.20;1.00;;;19.70;87.70;;;;;;6214582;23;20150;-73
2022/07/16 07:24:50;;;;;;;1.00;0.90;;;19.80;87.70;;;;;;6214687;23;20173;-72
2022/07/16 07:27:22;;;;;;;1.65;1.10;;;19.90;87.70;;;;;;6214741;23;20163;-72
2022/07/16 07:29:50;;;;;;;3.00;1.20;;;19.90;87.60;;;;;;6214327;23;20157;-72
2022/07/16 07:32:16;;;;;;;1.40;1.00;;;20.00;87.60;;;;;;6215668;23;20163;-73
2022/07/16 07:34:41;;;;;;;2.65;1.08;;;20.10;87.60;;;;;;6216522;23;20211;-72
2022/07/16 07:37:07;;;;;;;4.85;1.73;;;20.20;87.60;;;;;;6217414;23;20196;-73
2022/07/16 07:39:33;;;;;;;1.85;1.10;;;20.20;87.70;;;;;;6215422;23;20402;-71
2022/07/16 07:42:01;;;;;;;2.85;1.40;;;20.20;87.60;;;;;;6215402;23;20157;-73
2022/07/16 07:44:27;;;;;;;2.45;1.50;;;20.30;88.10;;;;;;6215527;23;20188;-73
2022/07/16 07:46:52;;;;;;;4.80;1.77;;;20.30;88.40;;;;;;6215131;23;20157;-73
2022/07/16 07:49:18;;;;;;;2.08;1.15;;;20.30;88.60;;;;;;6214877;23;20157;-73
2022/07/16 07:51:44;;;;;;;3.10;1.50;;;20.40;88.70;;;;;;6214011;23;20160;-73
2022/07/16 07:54:12;;;;;;;1.80;1.30;;;20.40;88.90;;;;;;6214229;23;20448;-74
2022/07/16 07:56:38;;;;;;;2.50;1.48;;;20.40;89.20;;;;;;6214595;23;20193;-72
2022/07/16 07:59:06;;;;;;;3.75;1.60;;;20.40;89.40;;;;;;6214740;23;20153;-72
2022/07/16 08:01:34;;;;;;;3.15;1.70;;;20.40;89.70;;;;;;6214350;23;20217;-73
2022/07/16 08:04:01;;;;;;;3.97;1.83;;;20.50;90.00;;;;;;6214411;23;20239;-74
2022/07/16 08:06:30;;;;;;;4.07;2.20;;;20.50;90.10;;;;;;6215963;23;20169;-72
2022/07/16 08:08:55;;;;;;;4.53;2.10;;;20.50;90.30;;;;;;6214531;23;20240;-73
2022/07/16 08:11:21;;;;;;;3.15;2.22;;;20.50;90.30;;;;;;6214093;23;20181;-73
2022/07/16 08:13:47;;;;;;;4.35;2.10;;;20.60;90.20;;;;;;6214659;23;20160;-74
2022/07/16 08:16:12;;;;;;;4.75;1.88;;;20.60;90.40;;;;;;6213939;23;20444;-72
2022/07/16 08:18:38;;;;;;;3.08;2.00;;;20.60;90.50;;;;;;6214339;23;20149;-72
2022/07/16 08:21:04;;;;;;;3.40;2.20;;;20.60;90.90;;;;;;6216099;23;20157;-72
2022/07/16 08:26:18;;;;;;;3.83;1.85;;;20.70;90.70;;;;;;6160239;23;20150;-72
2022/07/16 08:28:44;;;;;;;2.97;1.95;;;20.70;90.70;;;;;;6214231;23;20248;-73
2022/07/16 08:31:13;;;;;;;3.95;2.20;;;20.80;91.10;;;;;;6213739;23;20157;-73
2022/07/16 08:33:39;;;;;;;3.30;2.30;;;20.90;91.40;;;;;;6214980;23;20211;-72
2022/07/16 08:36:07;;;;;;;4.50;2.58;;;21.00;91.40;;;;;;6213641;23;20201;-73
2022/07/16 08:38:38;;;;;;;5.13;2.25;;;21.10;91.50;;;;;;6214820;23;20153;-72
2022/07/16 08:41:04;;;;;;;3.58;2.25;;;21.20;91.50;;;;;;6213994;23;20157;-69
2022/07/16 08:43:30;;;;;;;5.90;2.35;;;21.30;91.50;;;;;;6214759;23;20177;-73
2022/07/16 08:46:01;;;;;;;4.57;2.00;;;21.40;91.50;;;;;;6214072;23;20157;-72
2022/07/16 08:48:30;;;;;;;3.70;2.45;;;21.50;91.50;;;;;;6214407;23;20190;-74
2022/07/16 08:50:58;;;;;;;4.13;2.40;;;21.60;91.70;;;;;;6213841;23;20157;-72
2022/07/16 08:53:26;;;;;;;3.83;2.38;;;21.70;91.70;;;;;;6213428;23;20228;-73
2022/07/16 08:55:53;;;;;;;5.25;2.45;;;21.80;91.70;;;;;;6214226;23;20173;-71
2022/07/16 08:58:19;;;;;;;2.30;1.98;;;21.90;91.70;;;;;;6215448;23;20322;-71
2022/07/16 09:00:45;;;;;;;5.90;2.30;;;21.90;91.70;;;;;;6215975;23;20292;-73
2022/07/16 09:03:15;;;;;;;2.83;1.95;;;22.00;91.80;;;;;;6214224;23;20229;-72
2022/07/16 09:05:43;;;;;;;3.15;2.17;;;22.10;91.70;;;;;;6215436;23;20156;-72
2022/07/16 09:08:12;;;;;;;3.83;2.13;;;22.20;91.60;;;;;;6215090;23;20155;-71
2022/07/16 09:10:38;;;;;;;4.30;2.30;;;22.30;91.70;;;;;;6213931;23;20236;-71
2022/07/16 09:13:05;;;;;;;5.22;2.22;;;22.40;91.70;;;;;;6214038;23;20157;-72
2022/07/16 09:15:32;;;;;;;3.65;1.98;;;22.40;91.60;;;;;;6213648;23;20192;-73
2022/07/16 09:18:10;;;;;;;2.65;2.08;;;22.50;91.60;;;;;;6215358;23;20250;-73
2022/07/16 09:20:41;;;;;;;2.40;1.95;;;22.50;91.40;;;;;;6215167;23;20156;-73
2022/07/16 09:23:18;;;;;;;3.25;2.00;;;22.60;91.30;;;;;;6217443;23;20145;-73
2022/07/16 09:25:57;;;;;;;2.95;1.90;;;22.60;91.10;;;;;;6216364;23;20163;-74
2022/07/16 09:28:25;;;;;;;2.67;1.80;;;22.60;91.00;;;;;;6217818;23;20184;-73
2022/07/16 09:30:53;;;;;;;2.13;1.55;;;22.60;90.90;;;;;;6218141;23;20153;-73
2022/07/16 09:33:22;;;;;;;3.80;1.70;;;22.50;90.90;;;;;;6221248;23;20159;-73
2022/07/16 09:36:02;;;;;;;2.22;1.70;;;22.60;91.00;;;;;;6213274;23;20181;-72
2022/07/16 09:38:43;;;;;;;1.88;1.63;;;22.60;91.00;;;;;;6219349;23;20229;-73
2022/07/16 09:41:13;;;;;;;2.72;2.13;;;22.60;91.00;;;;;;6215051;23;20173;-71
2022/07/16 09:43:42;;;;;;;2.67;1.80;;;22.70;91.00;;;;;;6214607;23;20184;-73
2022/07/16 09:46:07;;;;;;;3.80;1.80;;;22.70;90.90;;;;;;6216702;23;20164;-72
2022/07/16 09:48:36;;;;;;;3.15;2.47;;;22.80;91.00;;;;;;6216616;23;20181;-73
2022/07/16 09:51:26;;;;;;;4.63;1.83;;;22.90;90.70;;;;;;6213486;23;20175;-73
2022/07/16 09:53:54;;;;;;;2.45;2.03;;;22.90;90.60;;;;;;6214665;23;20181;-73
2022/07/16 09:56:22;;;;;;;2.65;1.98;;;22.90;90.50;;;;;;6215138;23;20260;-74
2022/07/16 09:58:53;;;;;;;2.20;1.85;;;23.00;90.50;;;;;;6213686;23;20154;-72
2022/07/16 10:01:20;;;;;;;3.00;1.90;;;23.00;90.20;;;;;;6218151;23;20173;-73
2022/07/16 10:03:47;;;;;;;3.33;1.83;;;23.00;90.20;;;;;;6221064;23;20146;-72
2022/07/16 10:06:14;;;;;;;3.08;2.00;;;23.00;90.30;;;;;;6215300;23;20153;-73
2022/07/16 10:08:40;;;;;;;4.35;1.90;;;23.10;90.40;;;;;;6216480;23;20287;-72
2022/07/16 10:11:10;;;;;;;3.20;2.05;;;23.10;90.30;;;;;;6217048;23;20181;-73
2022/07/16 10:13:44;;;;;;;3.53;2.15;;;23.20;90.20;;;;;;6216623;23;20153;-74
2022/07/16 10:16:10;;;;;;;3.55;2.17;;;23.20;90.00;;;;;;6219445;23;20173;-74
2022/07/16 10:18:41;;;;;;;3.58;1.80;;;23.20;90.10;;;;;;6215609;23;20160;-73
2022/07/16 10:21:20;;;;;;;3.33;1.70;;;23.20;90.20;;;;;;6216252;23;20200;-74
2022/07/16 10:24:13;;;;;;;3.35;1.85;;;23.20;90.20;;;;;;6214499;23;20358;-74
2022/07/16 10:26:40;;;;;;;2.58;1.50;;;23.30;90.40;;;;;;6208404;23;20166;-74
2022/07/16 10:29:09;;;;;;;1.40;1.30;;;23.30;90.60;;;;;;6216896;23;20181;-75
2022/07/16 10:32:27;;;;;;;3.15;1.50;;;23.40;90.70;;;;;;6215111;23;20161;-74
2022/07/16 10:34:39;;;;;;;2.75;1.20;;;23.60;90.40;;;;;;6216349;23;20208;-73
2022/07/16 10:37:10;;;;;;;1.70;1.10;;;23.70;90.30;;;;;;6214612;23;20185;-75
2022/07/16 10:39:59;;;;;;;1.23;1.10;;;23.80;90.30;;;;;;6214891;23;20241;-75
2022/07/16 10:42:25;;;;;;;1.48;0.90;;;24.00;89.20;;;;;;6214680;23;20185;-73
2022/07/16 10:44:53;;;;;;;1.27;1.00;;;24.20;90.10;;;;;;6189330;23;20310;-75
2022/07/16 10:47:22;;;;;;;1.90;1.10;;;24.30;90.00;;;;;;6190168;23;20273;-75
2022/07/16 10:50:13;;;;;;;2.30;1.38;;;24.50;89.40;;;;;;6189842;23;20157;-75
2022/07/16 10:52:46;;;;;;;3.20;1.85;;;24.50;87.70;;;;;;6190903;23;20225;-73
2022/07/16 10:55:40;;;;;;;2.47;1.50;;;24.50;87.70;;;;;;6189413;23;20181;-74
2022/07/16 10:58:05;;;;;;;1.98;1.45;;;24.40;87.90;;;;;;6188819;23;20161;-73
2022/07/16 11:00:31;;;;;;;1.75;1.30;;;24.40;88.30;;;;;;6190269;23;20229;-75
2022/07/16 11:02:59;;;;;;;1.48;1.33;;;24.40;88.80;;;;;;6190678;23;20184;-74
2022/07/16 11:05:30;;;;;;;1.90;1.50;;;24.50;89.50;;;;;;6192469;23;20158;-77
2022/07/16 11:08:07;;;;;;;1.25;1.10;;;24.70;89.40;;;;;;6191938;23;20268;-74
2022/07/16 11:10:33;;;;;;;1.65;1.33;;;25.00;88.20;;;;;;6189432;23;20206;-75
2022/07/16 11:12:59;;;;;;;2.38;1.40;;;25.20;89.50;;;;;;6189068;23;20177;-76
2022/07/16 11:15:25;;;;;;;2.92;1.80;;;25.50;90.00;;;;;;6189835;23;20164;-79
2022/07/16 11:17:57;;;;;;;1.92;1.73;;;25.80;89.10;;;;;;6188792;23;20177;-75
2022/07/16 11:20:37;;;;;;;3.65;1.60;;;25.90;86.70;;;;;;6189235;23;20192;-76
2022/07/16 11:23:06;;;;;;;2.30;1.52;;;26.00;84.20;;;;;;6190186;23;20149;-76
2022/07/16 11:25:32;;;;;;;1.60;1.45;;;26.00;82.30;;;;;;6188845;23;20161;-76
2022/07/16 11:28:01;;;;;;;2.33;1.13;;;25.90;82.30;;;;;;6188979;23;20163;-72
2022/07/16 11:30:27;;;;;;;1.50;1.10;;;25.90;80.80;;;;;;6188789;23;20149;-74
2022/07/16 11:32:55;;;;;;;1.27;1.00;;;25.90;81.90;;;;;;6189527;23;20177;-76
2022/07/16 11:35:21;;;;;;;0.80;0.75;;;26.00;81.30;;;;;;6190994;23;20154;-73
2022/07/16 11:37:53;;;;;;;1.35;0.93;;;26.20;81.40;;;;;;6189188;23;20184;-75
2022/07/16 11:40:19;;;;;;;1.80;1.00;;;26.20;79.50;;;;;;6189215;23;20156;-73
2022/07/16 11:43:01;;;;;;;0.90;0.60;;;26.20;78.40;;;;;;6192619;23;20165;-76
2022/07/16 11:45:27;;;;;;;1.23;0.77;;;26.10;76.50;;;;;;6214697;23;20236;-72
2022/07/16 11:48:13;;;;;;;1.88;0.90;;;26.00;77.50;;;;;;6216463;23;20173;-69
2022/07/16 11:50:43;;;;;;;1.40;0.80;;;26.00;76.40;;;;;;6215972;23;20188;-69
2022/07/16 11:53:08;;;;;;;0.90;0.80;;;25.90;75.70;;;;;;6215962;23;20234;-71
2022/07/16 11:55:40;;;;;;;1.27;0.80;;;26.00;74.80;;;;;;6214576;23;20217;-71
2022/07/16 11:58:08;;;;;;;0.90;0.70;;;26.00;75.00;;;;;;6215061;23;20192;-70
2022/07/16 12:00:48;;;;;;;1.23;0.70;;;26.10;74.60;;;;;;6213736;23;20165;-70
2022/07/16 12:03:16;;;;;;;1.00;0.70;;;26.20;73.90;;;;;;6215154;23;20254;-68
2022/07/16 12:05:45;;;;;;;1.02;0.80;;;26.40;75.50;;;;;;6215394;23;20150;-69
2022/07/16 12:08:11;;;;;;;1.05;0.80;;;26.60;73.50;;;;;;6217479;23;20159;-69
2022/07/16 12:10:36;;;;;;;3.22;0.80;;;26.80;74.20;;;;;;6217146;23;20183;-69
2022/07/16 12:13:09;;;;;;;1.63;0.68;;;26.90;73.20;;;;;;6218072;23;20153;-68
2022/07/16 12:16:01;;;;;;;1.00;0.80;;;26.90;68.90;;;;;;6218010;23;20206;-71
2022/07/16 12:18:29;;;;;;;1.70;0.68;;;26.90;68.20;;;;;;6219309;23;20496;-70
2022/07/16 12:21:29;;;;;;;1.70;0.82;;;27.00;71.10;;;;;;6215615;23;20153;-69
2022/07/16 12:23:56;;;;;;;1.00;0.77;;;27.00;67.90;;;;;;6213912;23;20271;-68
2022/07/16 12:26:36;;;;;;;1.27;0.70;;;27.10;69.00;;;;;;6215077;23;20157;-69
2022/07/16 12:29:10;;;;;;;1.52;0.73;;;27.20;68.10;;;;;;6217195;23;20196;-71
2022/07/16 12:31:41;;;;;;;1.17;0.80;;;27.20;68.30;;;;;;6214769;23;20159;-70
2022/07/16 12:34:07;;;;;;;1.17;0.73;;;27.20;67.50;;;;;;6214598;23;20229;-70
2022/07/16 12:36:38;;;;;;;0.80;0.65;;;27.20;67.40;;;;;;6219667;23;20189;-72
2022/07/16 12:39:05;;;;;;;1.17;0.90;;;27.20;66.80;;;;;;6221802;23;20153;-71
2022/07/16 12:41:42;;;;;;;2.05;1.05;;;27.20;67.20;;;;;;6215629;23;20279;-71
2022/07/16 12:44:18;;;;;;;2.10;1.00;;;27.40;66.90;;;;;;6215129;23;20291;-69
2022/07/16 12:46:49;;;;;;;2.17;0.80;;;27.40;67.50;;;;;;6217009;23;20163;-71
2022/07/16 12:49:21;;;;;;;1.00;0.80;;;27.60;67.00;;;;;;6213463;23;20185;-71
2022/07/16 12:51:57;;;;;;;1.02;0.80;;;27.70;66.60;;;;;;6215683;23;20196;-71
2022/07/16 12:54:24;;;;;;;1.20;0.70;;;27.80;65.20;;;;;;6216830;23;20153;-71
2022/07/16 12:59:36;;;;;;;2.22;1.10;;;28.00;66.10;;;;;;6216434;23;20136;-71
2022/07/16 13:02:06;;;;;;;1.80;1.08;;;28.10;63.20;;;;;;6212763;23;20153;-71
2022/07/16 13:04:32;;;;;;;2.40;1.20;;;28.20;63.20;;;;;;6219812;23;20165;-70